Time;durP1;ratioP1;P1;durP2;ratioP2;P2;SDS_P1;SDS_P2;PMS_P1;PMS_P2;Temp;Humidity;BMP_temperature;BMP_pressure;BME280_temperature;BME280_humidity;BME280_pressure;Samples;Min_cycle;Max_cycle;Signal;HPM_P1;HPM_P2
2024/03/26 03:07:19;;;;;;;3.00;1.55;;;;;;;10.41;71.80;97268.84;2681831;23;20322;-97
2024/03/26 03:28:25;;;;;;;2.55;1.20;;;;;;;9.56;71.11;97106.66;5828576;23;20044;-96
2024/03/26 03:30:54;;;;;;;4.57;1.90;;;;;;;9.64;71.13;97110.66;5432024;23;20826;-95
2024/03/26 06:17:45;;;;;;;3.65;1.40;;;;;;;10.44;80.30;97130.50;6063772;23;20022;31
2024/03/26 06:20:14;;;;;;;4.07;1.73;;;;;;;9.86;79.61;97025.47;5275665;23;20038;-95
2024/03/26 06:33:37;;;;;;;1.85;0.65;;;;;;;11.17;73.59;97118.59;4948829;29;20047;-95
2024/03/26 06:36:08;;;;;;;1.73;0.95;;;;;;;10.47;73.88;96978.88;4928284;29;20451;-95
2024/03/26 06:38:34;;;;;;;2.92;1.13;;;;;;;11.29;73.34;97099.28;4935988;29;20071;-95
2024/03/26 06:41:01;;;;;;;4.40;1.08;;;;;;;10.41;72.31;96938.47;4935335;29;20474;-95
2024/03/26 06:43:27;;;;;;;5.20;1.02;;;;;;;11.39;72.85;97089.00;4933671;29;20074;-94
2024/03/26 06:45:53;;;;;;;3.08;1.30;;;;;;;10.95;72.20;97015.19;4931198;29;20066;-94
2024/03/26 06:48:19;;;;;;;1.85;1.02;;;;;;;11.64;72.12;97086.59;4940460;29;20138;-95
2024/03/26 07:08:18;;;;;;;2.08;1.00;;;;;;;10.54;74.40;96920.03;5711179;23;20270;-96
2024/03/26 07:11:03;;;;;;;3.30;1.00;;;;;;;10.66;74.30;96922.00;5730329;23;20025;-95
2024/03/26 07:32:50;;;;;;;4.90;1.33;;;;;;;11.01;76.65;96990.94;5320966;23;20051;-95
2024/03/26 07:35:24;;;;;;;3.13;1.65;;;;;;;10.30;76.72;96887.72;5036063;23;20056;-95
2024/03/26 07:37:57;;;;;;;3.58;1.40;;;;;;;11.20;75.89;97022.66;5474781;23;20126;-94
2024/03/26 07:40:30;;;;;;;3.83;1.35;;;;;;;10.71;77.46;96927.91;5558410;23;20345;-95
2024/03/26 07:58:35;;;;;;;5.15;1.38;;;;;;;11.07;79.72;97002.06;5339753;23;20071;-95
2024/03/26 08:01:16;;;;;;;3.97;1.05;;;;;;;11.20;79.54;97014.66;5641000;23;20165;31
2024/03/26 08:18:11;;;;;;;9.35;3.72;;;;;;;11.10;95.21;97075.50;4989448;28;20268;-95
2024/03/26 09:10:55;;;;;;;13.48;4.57;;;;;;;11.20;100.00;97121.94;4967188;28;20492;-95
2024/03/26 09:13:22;;;;;;;12.38;4.13;;;;;;;11.04;100.00;97121.94;4980853;28;20058;-95
2024/03/26 09:15:48;;;;;;;9.73;3.25;;;;;;;10.73;100.00;97095.31;4963779;28;20051;-94
2024/03/26 09:18:14;;;;;;;12.88;4.50;;;;;;;10.99;100.00;97144.41;4964747;28;20662;-94
2024/03/26 09:20:40;;;;;;;11.98;4.75;;;;;;;10.97;100.00;97163.09;4967893;28;20047;-95
2024/03/26 09:23:06;;;;;;;11.60;5.57;;;;;;;11.04;100.00;97155.69;4963948;28;20047;-94
2024/03/26 09:25:32;;;;;;;17.60;6.65;;;;;;;11.00;100.00;97154.13;4968438;28;20051;-95
2024/03/26 09:28:00;;;;;;;9.07;5.25;;;;;;;10.91;100.00;97158.16;4973199;28;20047;-94
2024/03/26 09:30:27;;;;;;;6.78;3.90;;;;;;;10.48;100.00;97097.50;4970448;28;20131;-95
2024/03/26 09:32:54;;;;;;;10.48;4.68;;;;;;;10.21;100.00;97053.75;4974399;28;20051;-95
2024/03/26 09:35:20;;;;;;;12.90;4.60;;;;;;;10.85;100.00;97171.78;4978508;28;20043;-96
2024/03/26 09:37:46;;;;;;;11.13;4.32;;;;;;;10.13;100.00;97056.84;4962026;29;20044;-94
2024/03/26 09:40:13;;;;;;;9.25;4.63;;;;;;;10.77;100.00;97148.22;4961008;28;20046;-94
2024/03/26 09:42:40;;;;;;;7.50;3.95;;;;;;;10.48;100.00;97144.50;4965894;28;20046;-94
2024/03/26 09:45:12;;;;;;;6.93;3.42;;;;;;;10.52;100.00;97137.19;4963066;28;20129;-95
2024/03/26 09:47:40;;;;;;;6.82;3.35;;;;;;;10.37;100.00;97129.09;4981927;28;20146;-95
2024/03/26 09:50:07;;;;;;;9.20;3.83;;;;;;;9.90;100.00;97105.81;4970289;28;20055;-94
2024/03/26 09:52:34;;;;;;;5.53;3.03;;;;;;;9.18;100.00;97051.91;4966193;28;20134;-94
2024/03/26 09:55:04;;;;;;;7.28;3.05;;;;;;;8.60;100.00;96968.13;4971265;28;20054;-96
2024/03/26 09:57:30;;;;;;;14.63;4.18;;;;;;;8.63;100.00;96989.19;4971542;28;20058;-95
2024/03/26 09:59:57;;;;;;;6.82;3.22;;;;;;;8.91;100.00;97045.28;4971925;28;20306;-93
2024/03/26 10:02:27;;;;;;;4.35;2.58;;;;;;;8.36;100.00;96967.47;4961058;28;20083;-94
2024/03/26 10:04:53;;;;;;;8.68;3.95;;;;;;;8.48;100.00;97052.59;4964006;28;20141;-93
2024/03/26 10:07:19;;;;;;;8.20;3.63;;;;;;;9.04;100.00;97099.44;4960766;28;20130;-94
2024/03/26 10:09:45;;;;;;;8.63;3.60;;;;;;;9.22;100.00;97118.94;4967809;28;20074;-96
2024/03/26 10:12:11;;;;;;;6.38;2.63;;;;;;;9.32;100.00;97108.72;4963813;28;20059;-94
2024/03/26 10:14:37;;;;;;;6.70;2.55;;;;;;;8.81;100.00;97016.59;4966256;28;20057;-94
2024/03/26 10:17:03;;;;;;;7.30;3.88;;;;;;;8.41;100.00;96946.97;4965782;28;20130;-94
2024/03/26 10:19:31;;;;;;;7.03;2.90;;;;;;;8.54;100.00;96935.75;4964077;28;20039;-94
2024/03/26 10:21:57;;;;;;;11.00;4.65;;;;;;;8.79;100.00;97036.16;4966088;28;20043;-93
2024/03/26 10:24:24;;;;;;;7.88;3.80;;;;;;;9.08;100.00;97077.16;4963967;28;20051;-94
2024/03/26 10:26:51;;;;;;;7.85;4.45;;;;;;;9.05;100.00;97075.50;4967324;28;20046;-94
2024/03/26 10:29:17;;;;;;;8.40;4.05;;;;;;;8.27;100.00;96945.88;4965795;28;20055;-92
2024/03/26 10:31:44;;;;;;;8.48;4.82;;;;;;;8.63;100.00;96952.09;4962397;28;20463;-94
2024/03/26 10:34:12;;;;;;;9.27;4.50;;;;;;;8.58;100.00;96916.13;4972080;28;20070;-94
2024/03/26 10:36:42;;;;;;;7.63;4.03;;;;;;;8.47;100.00;96908.72;4972260;28;20121;-93
2024/03/26 10:39:11;;;;;;;8.35;2.97;;;;;;;9.21;100.00;97033.19;4978284;28;20062;-94
2024/03/26 10:41:49;;;;;;;5.60;3.13;;;;;;;9.33;100.00;97023.78;4974953;28;20746;-93
2024/03/26 10:44:25;;;;;;;7.53;3.88;;;;;;;8.43;100.00;96875.34;4975159;28;20042;-93
2024/03/26 10:46:52;;;;;;;6.15;3.20;;;;;;;9.54;100.00;97000.63;4967055;28;20043;-95
2024/03/26 10:49:20;;;;;;;8.05;3.88;;;;;;;8.74;100.00;96901.22;4972176;28;20051;-94
2024/03/26 10:51:53;;;;;;;7.15;3.47;;;;;;;9.38;100.00;96981.09;4966757;28;20054;-93
2024/03/26 10:54:30;;;;;;;7.60;2.88;;;;;;;8.54;100.00;96832.44;4974440;28;20026;-94
2024/03/26 10:56:56;;;;;;;10.68;3.28;;;;;;;9.53;100.00;96977.66;4966363;28;20046;-93
2024/03/26 10:59:23;;;;;;;12.10;3.65;;;;;;;9.72;100.00;96968.75;4972153;28;20044;-93
2024/03/26 11:01:49;;;;;;;9.57;3.15;;;;;;;9.82;100.00;96952.25;4968136;28;20047;-96
2024/03/26 11:04:16;;;;;;;6.78;2.90;;;;;;;10.07;100.00;96951.78;4971906;28;20043;-95
2024/03/26 11:06:42;;;;;;;9.23;2.60;;;;;;;10.35;100.00;96942.34;4963358;28;20380;-95
2024/03/26 11:09:15;;;;;;;5.47;1.90;;;;;;;10.34;100.00;96937.94;4965645;28;20095;-95
2024/03/26 11:11:41;;;;;;;5.63;2.65;;;;;;;10.45;100.00;96940.00;4965349;28;20098;-95
2024/03/26 11:14:07;;;;;;;6.32;2.97;;;;;;;9.62;100.00;96803.81;4972606;28;20054;-95
2024/03/26 11:16:35;;;;;;;8.20;2.70;;;;;;;10.31;100.00;96919.53;4963867;28;20043;-95
2024/03/26 11:19:38;;;;;;;6.63;2.55;;;;;;;9.92;100.00;96773.88;4961060;28;20054;-94
2024/03/26 11:22:04;;;;;;;11.02;2.83;;;;;;;10.92;100.00;96887.75;4970076;28;20051;-95
2024/03/26 11:24:35;;;;;;;9.02;2.25;;;;;;;11.10;100.00;96883.97;4966572;29;20039;-93
2024/03/26 11:27:03;;;;;;;5.68;2.22;;;;;;;11.38;100.00;96880.53;4988180;28;20050;-96
2024/03/26 11:29:42;;;;;;;5.65;2.55;;;;;;;11.88;100.00;96887.25;4988673;28;20019;-96
2024/03/26 11:57:56;;;;;;;3.42;1.77;;;;;;;13.66;100.00;96890.69;4958709;29;20054;-95
2024/03/26 12:58:47;;;;;;;4.28;2.20;;;;;;;13.99;100.00;96723.59;6000898;23;21393;-96
2024/03/26 13:09:44;;;;;;;;;;;;;;;;;;;;;
2024/03/26 13:27:57;;;;;;;6.72;2.25;;;;;;;14.15;100.00;96815.03;5528611;23;20062;-95
2024/03/26 13:30:23;;;;;;;7.70;2.83;;;;;;;13.31;100.00;96687.56;5007843;23;20083;-95
2024/03/26 13:32:58;;;;;;;4.45;2.83;;;;;;;12.92;100.00;96690.25;4953683;28;20056;-95
2024/03/26 13:38:04;;;;;;;6.65;2.75;;;;;;;12.76;100.00;96694.94;5288534;23;20051;-95
2024/03/26 13:40:44;;;;;;;8.25;4.00;;;;;;;12.64;100.00;96677.09;4958395;28;20035;-95
2024/03/26 13:43:18;;;;;;;10.35;3.35;;;;;;;12.51;100.00;96693.97;5248168;23;20025;-96
2024/03/26 13:45:51;;;;;;;10.68;4.57;;;;;;;12.47;100.00;96678.25;5454738;23;20041;-94
2024/03/26 13:51:20;;;;;;;11.10;3.13;;;;;;;12.36;100.00;96667.47;4997700;28;20042;-95
2024/03/26 13:53:48;;;;;;;7.75;2.80;;;;;;;12.75;100.00;96727.88;5015936;28;20047;-96
2024/03/26 14:04:29;;;;;;;12.18;2.75;;;;;;;12.64;100.00;96670.00;5457190;23;20039;-96
2024/03/26 14:07:09;;;;;;;5.97;2.38;;;;;;;13.48;100.00;96790.50;5047862;23;20044;-95
2024/03/26 14:12:11;;;;;;;8.38;3.50;;;;;;;12.62;100.00;96657.69;5154113;23;20044;-94
2024/03/26 14:14:37;;;;;;;6.22;2.45;;;;;;;12.98;100.00;96718.31;4943235;29;20048;-95
2024/03/26 14:17:11;;;;;;;7.63;3.90;;;;;;;12.69;100.00;96667.84;4944427;28;20051;-95
2024/03/26 14:19:45;;;;;;;7.47;3.53;;;;;;;13.53;100.00;96796.34;5062790;23;20072;-95
2024/03/26 14:22:12;;;;;;;14.18;3.30;;;;;;;13.09;100.00;96728.22;4935596;29;20043;-95
2024/03/26 14:24:40;;;;;;;5.32;2.33;;;;;;;12.81;100.00;96684.78;4933325;29;20044;-95
2024/03/26 14:29:44;;;;;;;6.35;2.10;;;;;;;12.91;100.00;96677.88;5058959;23;20054;-95
2024/03/26 14:32:19;;;;;;;4.40;2.10;;;;;;;13.55;100.00;96791.75;4940971;29;20044;-95
2024/03/26 14:35:18;;;;;;;7.75;2.22;;;;;;;12.91;100.00;96707.22;4955944;28;20071;-96
2024/03/26 14:37:48;;;;;;;14.55;2.80;;;;;;;12.71;100.00;96684.59;4937426;29;20044;-95
2024/03/26 15:58:38;;;;;;;7.15;3.20;;;;;;;13.03;100.00;96809.53;6093125;23;20025;31
2024/03/26 16:52:40;;;;;;;16.38;10.45;;;;;;;12.61;100.00;96704.00;5562788;23;20050;-96
2024/03/26 16:58:05;;;;;;;15.90;8.13;;;;;;;13.37;100.00;96814.41;5214717;23;20085;-96
2024/03/26 17:00:32;;;;;;;14.73;8.00;;;;;;;12.73;100.00;96712.00;4964813;28;20070;-96
2024/03/26 17:03:00;;;;;;;13.70;5.28;;;;;;;12.70;100.00;96706.88;4968141;28;20491;-96
2024/03/26 17:05:29;;;;;;;12.75;6.13;;;;;;;12.59;100.00;96695.25;5064347;23;20054;-95
2024/03/26 17:07:57;;;;;;;12.90;6.13;;;;;;;12.87;100.00;96750.22;4987820;28;20043;-96
2024/03/26 17:10:26;;;;;;;14.40;6.53;;;;;;;12.66;100.00;96717.84;4995987;28;20027;-96
2024/03/26 17:43:08;;;;;;;5.30;2.10;;;;;;;13.63;100.00;96864.19;4937757;28;20056;-95
2024/03/26 17:45:37;;;;;;;3.88;1.70;;;;;;;13.00;100.00;96752.88;4929368;29;20056;-95
2024/03/26 17:48:07;;;;;;;3.55;2.08;;;;;;;13.66;100.00;96865.78;4917249;29;20096;-96
2024/03/26 17:50:37;;;;;;;3.33;1.75;;;;;;;13.60;100.00;96871.53;4926355;29;20040;-95
2024/03/26 17:53:06;;;;;;;6.25;2.10;;;;;;;13.43;100.00;96841.53;4916062;29;20633;-94
2024/03/26 17:55:35;;;;;;;5.82;2.92;;;;;;;12.99;100.00;96770.72;4917794;29;20048;-94
2024/03/26 17:58:28;;;;;;;5.75;2.20;;;;;;;13.61;100.00;96878.63;5037473;23;20052;-96
2024/03/26 18:01:23;;;;;;;7.05;2.70;;;;;;;13.59;100.00;96877.88;5704046;23;20119;-95
2024/03/26 18:03:51;;;;;;;4.20;2.70;;;;;;;13.66;100.00;96882.69;4932529;29;20040;-95
2024/03/26 18:06:24;;;;;;;7.32;3.25;;;;;;;12.85;100.00;96746.78;4931022;29;20047;-96
2024/03/26 18:08:53;;;;;;;5.38;3.45;;;;;;;13.01;100.00;96773.25;4930304;29;20119;-95
2024/03/26 18:11:24;;;;;;;6.05;3.47;;;;;;;13.07;100.00;96781.69;4950430;29;20055;-96
2024/03/26 18:13:53;;;;;;;8.40;3.60;;;;;;;13.68;100.00;96883.41;4928558;29;20048;-95
2024/03/26 18:16:28;;;;;;;7.18;3.05;;;;;;;12.99;100.00;96764.50;5034639;23;20035;-96
2024/03/26 18:18:55;;;;;;;5.95;2.42;;;;;;;13.71;100.00;96899.22;5151065;23;21133;-95
2024/03/26 18:22:05;;;;;;;9.10;4.15;;;;;;;13.73;100.00;96897.31;5272924;23;20091;-96
2024/03/26 18:39:08;;;;;;;6.43;3.08;;;;;;;12.85;100.00;96805.47;5468121;23;20051;-96
2024/03/26 19:50:14;;;;;;;9.02;4.35;;;;;;;12.97;100.00;96863.34;5488860;23;20021;31
2024/03/26 23:06:55;;;;;;;11.35;5.40;;;;;;;13.64;100.00;96935.34;5757356;23;21012;31
2024/03/26 23:09:23;;;;;;;14.10;5.00;;;;;;;13.23;100.00;96877.59;4993288;23;20095;-96
2024/03/26 23:16:56;;;;;;;14.40;5.78;;;;;;;12.98;100.00;96848.19;5682903;23;20954;-96
2024/03/26 23:31:12;;;;;;;15.80;5.07;;;;;;;13.01;100.00;96826.63;5010541;23;20049;-96
2024/03/26 23:45:52;;;;;;;13.13;4.72;;;;;;;13.01;100.00;96811.50;5249750;23;20067;-96
2024/03/26 23:55:08;;;;;;;14.25;4.40;;;;;;;13.74;100.00;96914.19;5143583;23;20032;-96
2024/03/26 23:58:28;;;;;;;11.90;4.60;;;;;;;13.30;100.00;96864.72;5448151;23;20036;31
